Time;durP1;ratioP1;P1;durP2;ratioP2;P2;SDS_P1;SDS_P2;PMS_P1;PMS_P2;Temp;Humidity;BMP_temperature;BMP_pressure;BME280_temperature;BME280_humidity;BME280_pressure;Samples;Min_cycle;Max_cycle;Signal;HPM_P1;HPM_P2
2022/01/03 00:00:38;;;;;;;4.37;1.90;;;11.10;99.90;;;;;;5053775;28;20451;-78
2022/01/03 00:03:07;;;;;;;7.23;2.53;;;11.10;99.90;;;;;;5054566;28;20417;-78
2022/01/03 00:05:35;;;;;;;9.40;3.00;;;11.10;99.90;;;;;;5054775;28;20449;-78
2022/01/03 00:08:03;;;;;;;6.13;3.00;;;11.10;99.90;;;;;;5053332;28;20483;-77
2022/01/03 00:10:30;;;;;;;7.20;2.20;;;11.00;99.90;;;;;;5053703;28;20539;-78
2022/01/03 00:12:57;;;;;;;7.90;2.30;;;11.00;99.90;;;;;;5054836;28;20451;-78
2022/01/03 00:15:24;;;;;;;7.70;2.60;;;11.00;99.90;;;;;;5052268;28;20465;-77
2022/01/03 00:17:53;;;;;;;8.80;3.83;;;10.90;99.90;;;;;;5048400;28;20473;-77
2022/01/03 00:20:21;;;;;;;10.40;2.60;;;10.90;99.90;;;;;;5054111;28;21396;-78
2022/01/03 00:22:54;;;;;;;7.80;2.63;;;10.80;99.90;;;;;;5054434;28;20549;-79
2022/01/03 00:25:22;;;;;;;12.83;3.10;;;10.70;99.90;;;;;;5054448;28;20449;-78
2022/01/03 00:27:53;;;;;;;5.90;2.50;;;10.70;99.90;;;;;;5054420;28;20492;-80
2022/01/03 00:30:21;;;;;;;9.13;3.23;;;10.70;99.90;;;;;;5054624;28;20466;-78
2022/01/03 00:32:50;;;;;;;9.27;2.90;;;11.00;99.90;;;;;;5055329;28;20546;-77
2022/01/03 00:35:19;;;;;;;6.27;2.73;;;10.90;99.90;;;;;;5055961;28;20503;-78
2022/01/03 00:37:48;;;;;;;8.00;2.43;;;10.80;99.90;;;;;;5055350;28;20466;-80
2022/01/03 00:40:16;;;;;;;8.30;3.33;;;10.80;99.90;;;;;;5055234;28;20461;-79
2022/01/03 00:42:44;;;;;;;7.90;2.57;;;10.80;99.90;;;;;;5056594;28;20461;-78
2022/01/03 00:45:11;;;;;;;8.07;2.70;;;10.80;99.90;;;;;;5051447;28;20489;-77
2022/01/03 00:47:38;;;;;;;9.13;2.80;;;10.80;99.90;;;;;;5054943;28;20557;-79
2022/01/03 00:50:09;;;;;;;10.27;3.17;;;10.80;99.90;;;;;;5054907;28;20662;-81
2022/01/03 00:52:37;;;;;;;10.50;3.17;;;10.80;99.90;;;;;;5056501;28;20456;-79
2022/01/03 00:55:05;;;;;;;11.23;3.33;;;10.80;99.90;;;;;;5055276;28;20896;-79
2022/01/03 00:57:51;;;;;;;9.13;3.30;;;10.80;99.90;;;;;;5055942;28;20468;-78
2022/01/03 01:00:19;;;;;;;10.47;3.10;;;12.10;99.90;;;;;;5052070;28;20480;-81
2022/01/03 01:02:51;;;;;;;9.00;2.53;;;10.80;99.90;;;;;;5054797;28;20986;-80
2022/01/03 01:05:21;;;;;;;9.10;2.90;;;10.80;99.90;;;;;;5053824;28;20458;-79
2022/01/03 01:07:56;;;;;;;10.67;3.00;;;10.80;99.90;;;;;;5054667;28;20490;-80
2022/01/03 01:10:27;;;;;;;9.10;2.93;;;10.70;99.90;;;;;;5054480;28;20457;-80
2022/01/03 01:12:55;;;;;;;9.10;3.37;;;10.60;99.90;;;;;;5048847;28;20464;-80
2022/01/03 01:15:22;;;;;;;13.27;3.47;;;10.60;99.90;;;;;;5051831;28;20460;-80
2022/01/03 01:17:49;;;;;;;11.00;2.97;;;10.60;99.90;;;;;;5054764;28;20497;-79
2022/01/03 01:20:20;;;;;;;21.10;3.97;;;10.60;99.90;;;;;;5051914;28;20451;-80
2022/01/03 01:22:47;;;;;;;10.03;2.67;;;10.60;99.90;;;;;;5057030;28;20550;-79
2022/01/03 01:27:46;;;;;;;15.03;3.83;;;10.60;99.90;;;;;;5051967;28;20454;-79
2022/01/03 01:28:14;;;;;;;10.03;2.73;;;10.60;99.90;;;;;;5055983;28;20498;-79
2022/01/03 01:30:44;;;;;;;9.10;3.40;;;10.60;99.90;;;;;;5055752;28;20976;-79
2022/01/03 01:33:13;;;;;;;13.70;2.63;;;10.50;99.90;;;;;;5051728;28;20519;-80
2022/01/03 01:35:45;;;;;;;9.10;2.80;;;10.50;99.90;;;;;;5055070;28;20454;-80
2022/01/03 01:38:14;;;;;;;14.57;3.30;;;10.60;99.90;;;;;;5056716;28;20465;-80
2022/01/03 01:40:48;;;;;;;10.10;3.10;;;10.70;99.90;;;;;;5055780;28;20464;-78
2022/01/03 01:43:19;;;;;;;10.90;2.40;;;10.70;99.90;;;;;;5056194;28;20442;-80
2022/01/03 01:45:49;;;;;;;11.07;2.70;;;10.70;99.90;;;;;;5056076;28;20830;-78
2022/01/03 01:48:18;;;;;;;17.10;3.23;;;10.70;99.90;;;;;;5056650;28;21034;-79
2022/01/03 01:50:51;;;;;;;7.73;2.73;;;10.70;99.90;;;;;;5055121;28;20462;-80
2022/01/03 01:53:23;;;;;;;10.47;2.90;;;10.70;99.90;;;;;;5057315;28;20465;-79
2022/01/03 01:55:54;;;;;;;9.93;2.60;;;10.70;99.90;;;;;;5056065;28;20971;-79
2022/01/03 01:58:30;;;;;;;11.57;2.37;;;10.80;99.90;;;;;;5057083;28;20485;-79
2022/01/03 02:01:02;;;;;;;14.40;3.87;;;10.80;99.90;;;;;;5054688;28;20545;-79
2022/01/03 02:03:38;;;;;;;13.00;2.47;;;10.70;99.90;;;;;;5056849;28;20454;-82
2022/01/03 02:06:19;;;;;;;17.30;3.40;;;10.80;99.90;;;;;;5045450;28;20453;-80
2022/01/03 02:08:57;;;;;;;17.57;3.80;;;10.70;99.90;;;;;;5059474;28;20495;-79
2022/01/03 02:11:33;;;;;;;13.43;3.70;;;10.70;99.90;;;;;;5055930;28;20801;-81
2022/01/03 02:14:00;;;;;;;13.13;3.27;;;10.70;99.90;;;;;;5058816;28;20461;-80
2022/01/03 02:16:27;;;;;;;12.57;3.13;;;10.70;99.90;;;;;;5045353;28;20447;-79
2022/01/03 02:18:54;;;;;;;16.03;3.30;;;10.70;99.90;;;;;;5054369;28;20865;-80
2022/01/03 02:21:22;;;;;;;12.03;3.20;;;10.80;99.90;;;;;;5058851;28;20453;-80
2022/01/03 02:23:49;;;;;;;17.03;2.97;;;10.70;99.90;;;;;;5059894;28;20479;-81
2022/01/03 02:26:16;;;;;;;8.80;2.67;;;10.60;99.90;;;;;;5060145;28;20451;-79
2022/01/03 02:28:42;;;;;;;10.33;2.60;;;10.70;99.90;;;;;;5058413;28;20488;-80
2022/01/03 02:31:09;;;;;;;10.60;2.80;;;10.60;99.90;;;;;;5057793;28;20455;-81
2022/01/03 02:33:36;;;;;;;12.40;2.30;;;10.60;99.90;;;;;;5057842;28;20458;-82
2022/01/03 02:36:05;;;;;;;9.93;2.57;;;10.60;99.90;;;;;;5057773;28;20469;-79
2022/01/03 02:38:33;;;;;;;10.80;2.87;;;10.60;99.90;;;;;;5057336;28;20477;-84
2022/01/03 02:41:00;;;;;;;12.33;2.90;;;10.70;99.90;;;;;;5057357;28;20461;-82
2022/01/03 02:43:27;;;;;;;14.50;2.83;;;10.60;99.90;;;;;;5057719;28;20463;-80
2022/01/03 02:45:54;;;;;;;12.53;3.27;;;10.60;99.90;;;;;;5058324;28;20453;-82
2022/01/03 02:48:22;;;;;;;16.43;2.83;;;10.60;99.90;;;;;;5057965;28;20494;-82
2022/01/03 02:50:50;;;;;;;19.23;3.60;;;10.60;99.90;;;;;;5057991;28;20532;-80
2022/01/03 02:53:17;;;;;;;18.77;3.53;;;10.50;99.90;;;;;;5058457;28;20452;-82
2022/01/03 02:55:45;;;;;;;13.13;3.33;;;10.40;99.90;;;;;;5059049;28;20458;-79
2022/01/03 02:58:12;;;;;;;8.40;2.50;;;10.40;99.90;;;;;;5058257;28;20476;-80
2022/01/03 03:00:45;;;;;;;11.67;2.63;;;10.40;99.90;;;;;;5056619;28;20464;-81
2022/01/03 03:03:12;;;;;;;11.77;3.13;;;10.40;99.90;;;;;;5066225;28;20462;-82
2022/01/03 03:05:39;;;;;;;13.53;3.10;;;10.30;99.90;;;;;;5070528;28;20458;-81
2022/01/03 03:08:06;;;;;;;17.00;4.43;;;10.30;99.90;;;;;;5063099;28;20486;-81
2022/01/03 03:10:33;;;;;;;11.90;4.17;;;10.40;99.90;;;;;;5057579;28;20453;-81
2022/01/03 03:13:01;;;;;;;11.20;2.83;;;10.40;99.90;;;;;;5057870;28;20462;-81
2022/01/03 03:15:28;;;;;;;13.70;2.57;;;10.50;99.90;;;;;;5057552;28;20486;-80
2022/01/03 03:17:55;;;;;;;12.13;3.17;;;10.50;99.90;;;;;;5056922;28;20479;-81
2022/01/03 03:20:24;;;;;;;11.13;2.77;;;10.40;99.90;;;;;;5056970;28;20455;-81
2022/01/03 03:22:51;;;;;;;7.97;2.60;;;10.40;99.90;;;;;;5058166;28;20455;-80
2022/01/03 03:25:21;;;;;;;11.30;2.80;;;10.40;99.90;;;;;;5057947;28;20459;-81
2022/01/03 03:27:51;;;;;;;9.30;2.10;;;10.30;99.90;;;;;;5057358;28;20459;-81
2022/01/03 03:30:21;;;;;;;12.43;3.17;;;10.20;99.90;;;;;;5056969;28;20452;-81
2022/01/03 03:32:50;;;;;;;12.67;3.10;;;10.20;99.90;;;;;;5058360;28;20452;-83
2022/01/03 03:35:18;;;;;;;8.63;2.70;;;10.10;99.90;;;;;;5057329;28;20454;-80
2022/01/03 03:37:45;;;;;;;13.30;2.83;;;10.10;99.90;;;;;;5057740;28;20516;-81
2022/01/03 03:40:13;;;;;;;14.37;3.30;;;10.10;99.90;;;;;;5057212;28;20959;-83
2022/01/03 03:42:41;;;;;;;13.40;2.67;;;10.10;99.90;;;;;;5058134;28;20537;-81
2022/01/03 03:45:09;;;;;;;15.80;2.67;;;10.10;99.90;;;;;;5057160;28;20463;-82
2022/01/03 03:47:37;;;;;;;16.37;3.37;;;10.10;99.90;;;;;;5057916;28;20482;-78
2022/01/03 03:50:05;;;;;;;10.30;2.57;;;10.20;99.90;;;;;;5055719;28;20446;-78
2022/01/03 03:52:32;;;;;;;14.73;3.50;;;10.20;99.90;;;;;;5056022;28;20453;-79
2022/01/03 03:54:59;;;;;;;18.47;2.97;;;10.20;99.90;;;;;;5044728;28;20465;-80
2022/01/03 03:57:26;;;;;;;12.37;2.20;;;10.30;99.90;;;;;;5056655;28;20484;-79
2022/01/03 03:59:54;;;;;;;9.17;2.00;;;10.40;99.90;;;;;;5062821;28;20533;-80
2022/01/03 04:02:21;;;;;;;6.83;2.07;;;10.40;99.90;;;;;;5059844;28;20482;-80
2022/01/03 04:04:49;;;;;;;8.93;2.50;;;10.40;99.90;;;;;;5056494;28;20458;-81
2022/01/03 04:07:16;;;;;;;8.93;2.13;;;10.40;99.90;;;;;;5056579;28;20472;-80
2022/01/03 04:09:43;;;;;;;10.67;2.50;;;10.40;99.90;;;;;;5055795;28;20496;-79
2022/01/03 04:12:10;;;;;;;12.27;2.70;;;10.40;99.90;;;;;;5055910;28;20462;-80
2022/01/03 04:14:37;;;;;;;16.07;2.57;;;10.50;99.90;;;;;;5039171;28;21008;-80
2022/01/03 04:17:04;;;;;;;14.03;3.40;;;10.50;99.90;;;;;;5055995;28;20474;-80
2022/01/03 04:19:30;;;;;;;9.07;2.10;;;10.50;99.90;;;;;;5055559;28;20976;-79
2022/01/03 04:21:59;;;;;;;10.87;2.50;;;10.40;99.90;;;;;;5055111;28;20973;-80
2022/01/03 04:24:25;;;;;;;13.90;2.60;;;10.40;99.90;;;;;;5055722;28;20454;-81
2022/01/03 04:26:52;;;;;;;17.10;2.40;;;10.50;99.90;;;;;;5055239;28;20461;-81
2022/01/03 04:29:19;;;;;;;16.20;2.80;;;10.50;99.90;;;;;;5055592;28;20484;-80
2022/01/03 04:31:46;;;;;;;16.50;2.80;;;10.40;99.90;;;;;;5055403;28;20798;-80
2022/01/03 04:34:13;;;;;;;7.60;2.47;;;10.50;99.90;;;;;;5055913;28;20464;-80
2022/01/03 04:36:41;;;;;;;13.33;2.90;;;10.50;99.90;;;;;;5055214;28;20456;-79
2022/01/03 04:39:09;;;;;;;13.63;2.80;;;10.50;99.90;;;;;;5052101;28;20455;-80
2022/01/03 04:41:36;;;;;;;10.20;2.17;;;10.40;99.90;;;;;;5054286;28;20459;-80
2022/01/03 04:44:05;;;;;;;17.87;3.10;;;10.30;99.90;;;;;;5055652;28;20497;-79
2022/01/03 04:46:32;;;;;;;11.17;2.80;;;10.20;99.90;;;;;;5055495;28;20497;-81
2022/01/03 04:48:59;;;;;;;8.43;3.00;;;10.20;99.90;;;;;;5055421;28;20484;-80
2022/01/03 04:51:26;;;;;;;10.70;2.17;;;10.10;99.90;;;;;;5054521;28;20449;-79
2022/01/03 04:53:53;;;;;;;12.67;2.63;;;10.00;99.90;;;;;;5054486;28;20442;-79
2022/01/03 04:56:22;;;;;;;6.67;2.00;;;10.00;99.90;;;;;;5055798;28;20450;-80
2022/01/03 04:58:49;;;;;;;12.13;2.27;;;10.00;99.90;;;;;;5053843;28;20478;-80
2022/01/03 05:01:16;;;;;;;38.27;15.77;;;10.00;99.90;;;;;;5053119;28;20449;-80
2022/01/03 05:03:43;;;;;;;10.57;2.27;;;10.10;99.90;;;;;;5054995;28;20454;-80
2022/01/03 05:06:09;;;;;;;9.53;2.57;;;10.10;99.90;;;;;;5055144;28;20454;-80
2022/01/03 05:08:36;;;;;;;11.43;2.40;;;10.10;99.90;;;;;;5054257;28;20494;-80
2022/01/03 05:11:03;;;;;;;19.33;2.77;;;10.00;99.90;;;;;;5048553;28;20453;-80
2022/01/03 05:13:32;;;;;;;14.17;2.67;;;10.00;99.90;;;;;;5054211;28;20461;-80
2022/01/03 05:16:00;;;;;;;15.17;3.00;;;9.90;99.90;;;;;;5054969;28;20460;-78
2022/01/03 05:18:28;;;;;;;8.17;2.10;;;9.90;99.90;;;;;;5056057;28;20565;-80
2022/01/03 05:20:55;;;;;;;11.20;2.27;;;9.90;99.90;;;;;;5054230;28;20458;-80
2022/01/03 05:23:23;;;;;;;12.10;2.63;;;9.80;99.90;;;;;;5054978;28;20458;-80
2022/01/03 05:25:50;;;;;;;13.90;3.00;;;9.80;99.90;;;;;;5056188;28;20463;-79
2022/01/03 05:28:18;;;;;;;7.20;2.63;;;9.80;99.90;;;;;;5055350;28;20474;-80
2022/01/03 05:30:46;;;;;;;17.07;2.80;;;9.90;99.90;;;;;;5054231;28;20458;-79
2022/01/03 05:33:13;;;;;;;11.33;2.97;;;10.00;99.90;;;;;;5055330;28;20544;-79
2022/01/03 05:35:40;;;;;;;15.80;2.87;;;10.00;99.90;;;;;;5054497;28;20547;-78
2022/01/03 05:38:06;;;;;;;9.13;2.57;;;10.10;99.90;;;;;;5055579;28;20551;-79
2022/01/03 05:40:33;;;;;;;12.37;2.67;;;10.10;99.90;;;;;;5054208;28;20450;-80
2022/01/03 05:43:00;;;;;;;18.73;3.00;;;10.10;99.90;;;;;;5059159;28;20455;-79
2022/01/03 05:45:27;;;;;;;10.00;2.50;;;10.20;99.90;;;;;;5059607;28;20483;-80
2022/01/03 05:47:55;;;;;;;13.17;2.37;;;10.20;99.90;;;;;;5058920;28;20491;-80
2022/01/03 05:50:23;;;;;;;8.03;2.00;;;10.20;99.90;;;;;;5058293;28;20483;-80
2022/01/03 05:52:49;;;;;;;7.80;2.33;;;10.20;99.90;;;;;;5059305;28;20468;-78
2022/01/03 05:55:18;;;;;;;14.33;2.37;;;10.20;99.90;;;;;;5058316;28;20457;-81
2022/01/03 05:57:45;;;;;;;11.20;3.70;;;10.10;99.90;;;;;;5058798;28;20534;-80
2022/01/03 06:00:15;;;;;;;17.83;3.50;;;10.20;99.90;;;;;;5062483;28;20451;-80
2022/01/03 06:02:43;;;;;;;9.40;3.23;;;10.30;99.90;;;;;;5062495;28;20455;-78
2022/01/03 06:05:19;;;;;;;5.40;1.90;;;10.50;99.90;;;;;;5059842;28;20462;-77
2022/01/03 06:07:47;;;;;;;10.13;2.10;;;10.80;99.90;;;;;;5050310;28;21021;-78
2022/01/03 06:10:17;;;;;;;15.27;3.60;;;10.80;99.90;;;;;;5046501;28;20482;-78
2022/01/03 06:12:45;;;;;;;11.33;2.10;;;11.00;99.90;;;;;;5056908;28;20454;-79
2022/01/03 06:15:14;;;;;;;11.60;3.00;;;11.00;99.90;;;;;;5056035;28;20979;-80
2022/01/03 06:17:42;;;;;;;8.23;3.43;;;10.80;99.90;;;;;;5057169;28;21005;-80
2022/01/03 06:20:11;;;;;;;10.83;3.20;;;10.60;99.90;;;;;;5055322;28;20446;-79
2022/01/03 06:22:40;;;;;;;10.40;2.60;;;10.50;99.90;;;;;;5047084;28;20454;-80
2022/01/03 06:25:08;;;;;;;12.43;2.90;;;10.40;99.90;;;;;;5055562;28;20447;-80
2022/01/03 06:27:35;;;;;;;8.60;2.10;;;10.30;99.90;;;;;;5062631;28;20556;-81
2022/01/03 06:30:02;;;;;;;18.43;3.23;;;10.20;99.90;;;;;;5050642;28;20560;-79
2022/01/03 06:32:29;;;;;;;12.37;2.70;;;10.20;99.90;;;;;;5053397;28;20819;-80
2022/01/03 06:34:56;;;;;;;6.50;2.77;;;10.20;99.90;;;;;;5058943;28;20467;-80
2022/01/03 06:37:24;;;;;;;13.07;2.97;;;10.20;99.90;;;;;;5057895;28;20995;-80
2022/01/03 06:39:51;;;;;;;6.67;2.20;;;10.20;99.90;;;;;;5058108;28;20534;-79
2022/01/03 06:42:18;;;;;;;9.63;3.37;;;10.20;99.90;;;;;;5054262;28;20460;-79
2022/01/03 06:44:46;;;;;;;10.03;3.00;;;10.20;99.90;;;;;;5049221;28;20999;-79
2022/01/03 06:47:13;;;;;;;16.93;2.63;;;10.30;99.90;;;;;;5045459;28;20498;-79
2022/01/03 06:49:40;;;;;;;14.83;3.27;;;10.30;99.90;;;;;;5052761;28;20476;-80
2022/01/03 06:52:07;;;;;;;8.33;2.93;;;10.30;99.90;;;;;;5055532;28;20449;-80
2022/01/03 06:54:35;;;;;;;12.63;2.50;;;10.30;99.90;;;;;;5054673;28;20465;-79
2022/01/03 06:57:02;;;;;;;11.70;2.60;;;10.30;99.90;;;;;;5056664;28;20449;-80
2022/01/03 06:59:29;;;;;;;11.80;2.60;;;10.40;99.90;;;;;;5056563;28;20456;-80
2022/01/03 07:01:56;;;;;;;17.13;3.20;;;10.40;99.90;;;;;;5039975;28;20459;-79
2022/01/03 07:04:23;;;;;;;17.43;3.00;;;10.30;99.90;;;;;;5050248;28;20480;-79
2022/01/03 07:06:49;;;;;;;17.80;3.83;;;10.30;99.90;;;;;;5054872;28;20460;-79
2022/01/03 07:09:16;;;;;;;14.93;3.00;;;10.40;99.90;;;;;;5056174;28;20485;-79
2022/01/03 07:11:44;;;;;;;10.67;2.30;;;10.40;99.90;;;;;;5057134;28;20473;-79
2022/01/03 07:19:43;;;;;;;16.43;3.40;;;10.40;99.90;;;;;;5056954;28;20447;-79
2022/01/03 07:22:11;;;;;;;11.40;3.13;;;10.50;99.90;;;;;;5057413;28;20541;-80
2022/01/03 07:24:40;;;;;;;11.33;2.63;;;10.40;99.90;;;;;;5056821;28;20453;-79
2022/01/03 07:27:10;;;;;;;12.20;2.83;;;10.40;99.90;;;;;;5056123;28;20568;-80
2022/01/03 07:29:38;;;;;;;9.77;3.37;;;10.40;99.90;;;;;;5051001;28;20481;-79
2022/01/03 07:32:06;;;;;;;11.80;2.47;;;10.40;99.90;;;;;;5054761;28;20449;-78
2022/01/03 07:34:33;;;;;;;11.90;2.53;;;10.40;99.90;;;;;;5054908;28;20449;-78
2022/01/03 07:37:01;;;;;;;12.47;2.60;;;10.40;99.90;;;;;;5054797;28;20456;-78
2022/01/03 07:39:28;;;;;;;16.53;2.40;;;10.40;99.90;;;;;;5054669;28;20991;-78
2022/01/03 07:41:55;;;;;;;10.87;2.70;;;10.30;99.90;;;;;;5054313;28;20456;-78
2022/01/03 07:44:23;;;;;;;14.07;3.77;;;10.20;99.90;;;;;;5053517;28;20476;-79
2022/01/03 07:46:50;;;;;;;15.77;3.10;;;10.20;99.90;;;;;;5054468;28;20447;-78
2022/01/03 07:49:17;;;;;;;14.10;3.13;;;10.20;99.90;;;;;;5053490;28;20486;-78
2022/01/03 07:51:44;;;;;;;10.27;2.37;;;10.20;99.90;;;;;;5053692;28;20450;-79
2022/01/03 07:54:11;;;;;;;9.97;2.57;;;10.30;99.90;;;;;;5051879;28;20818;-78
2022/01/03 07:56:37;;;;;;;11.47;2.90;;;10.30;99.90;;;;;;5054205;28;20467;-83
2022/01/03 07:59:05;;;;;;;12.63;2.90;;;10.40;99.90;;;;;;5054213;28;20474;-80
2022/01/03 08:01:33;;;;;;;10.47;3.33;;;10.50;99.90;;;;;;5051153;28;20458;-78
2022/01/03 08:04:00;;;;;;;13.43;2.87;;;10.50;99.90;;;;;;5059681;28;20465;-79
2022/01/03 08:06:28;;;;;;;12.50;2.70;;;10.60;99.90;;;;;;5060865;28;20468;-80
2022/01/03 08:08:55;;;;;;;14.07;3.23;;;10.60;99.90;;;;;;5053157;28;20825;-80
2022/01/03 08:11:22;;;;;;;15.07;2.60;;;10.80;99.90;;;;;;5051723;28;20451;-77
2022/01/03 08:13:48;;;;;;;12.40;2.50;;;10.80;99.90;;;;;;5051692;28;20445;-77
2022/01/03 08:16:15;;;;;;;10.07;2.37;;;10.90;99.90;;;;;;5052526;28;20494;-78
2022/01/03 08:18:43;;;;;;;12.53;2.80;;;10.80;99.90;;;;;;5051061;28;20469;-78
2022/01/03 08:21:10;;;;;;;9.20;2.43;;;10.70;99.90;;;;;;5049634;28;20973;-78
2022/01/03 08:23:37;;;;;;;9.90;2.57;;;10.60;99.90;;;;;;5058459;28;20476;-78
2022/01/03 08:26:04;;;;;;;8.77;4.23;;;10.40;99.90;;;;;;5047753;28;20449;-78
2022/01/03 08:28:31;;;;;;;9.70;2.60;;;10.40;99.90;;;;;;5046805;28;20480;-78
2022/01/03 08:30:58;;;;;;;10.63;2.63;;;10.20;99.90;;;;;;5046454;28;20482;-80
2022/01/03 08:33:24;;;;;;;8.17;2.20;;;10.10;99.90;;;;;;5051724;28;20961;-78
2022/01/03 08:35:53;;;;;;;15.23;3.67;;;10.10;99.90;;;;;;5051351;28;20479;-78
2022/01/03 08:38:19;;;;;;;13.17;3.03;;;10.00;99.90;;;;;;5050979;28;20486;-78
2022/01/03 08:40:47;;;;;;;10.40;2.50;;;9.90;99.90;;;;;;5050263;28;20454;-79
2022/01/03 08:43:13;;;;;;;14.23;2.73;;;9.90;99.90;;;;;;5052007;28;20463;-78
2022/01/03 08:45:40;;;;;;;10.47;3.20;;;9.90;99.90;;;;;;5050765;28;20468;-79
2022/01/03 08:48:07;;;;;;;16.40;3.77;;;9.90;99.90;;;;;;5051085;28;21104;-77
2022/01/03 08:50:34;;;;;;;11.90;2.50;;;9.90;99.90;;;;;;5050698;28;20485;-78
2022/01/03 08:53:04;;;;;;;12.93;2.93;;;10.00;99.90;;;;;;5051641;28;20461;-79
2022/01/03 08:55:31;;;;;;;9.00;2.90;;;10.00;99.90;;;;;;5044492;28;20453;-79
2022/01/03 08:57:58;;;;;;;11.63;3.00;;;10.20;99.90;;;;;;5049605;28;20490;-78
2022/01/03 09:00:25;;;;;;;12.90;4.57;;;10.20;99.90;;;;;;5048423;28;20488;-78
2022/01/03 09:02:52;;;;;;;14.30;4.07;;;10.30;99.90;;;;;;5049630;28;20501;-76
2022/01/03 09:05:19;;;;;;;9.17;2.23;;;10.30;99.90;;;;;;5046920;28;20551;-77
2022/01/03 09:07:45;;;;;;;18.80;3.43;;;10.30;99.90;;;;;;5050565;28;20470;-78
2022/01/03 09:10:14;;;;;;;17.70;3.23;;;10.30;99.90;;;;;;5046124;28;20503;-78
2022/01/03 09:12:41;;;;;;;11.13;3.50;;;10.20;99.90;;;;;;5049118;28;20539;-77
2022/01/03 09:15:08;;;;;;;19.07;3.80;;;10.30;99.90;;;;;;5048220;28;20455;-80
2022/01/03 09:17:35;;;;;;;11.93;2.80;;;10.30;99.90;;;;;;5047432;28;20470;-77
2022/01/03 09:20:02;;;;;;;16.63;3.20;;;10.30;99.90;;;;;;5045687;28;20455;-78
2022/01/03 09:22:34;;;;;;;9.87;2.43;;;10.30;99.90;;;;;;5048084;28;20464;-77
2022/01/03 09:30:30;;;;;;;20.30;4.17;;;10.70;99.90;;;;;;5047639;28;20481;-78
2022/01/03 09:32:56;;;;;;;12.40;2.50;;;10.70;99.90;;;;;;5050585;28;20457;-78
2022/01/03 09:35:23;;;;;;;8.80;2.63;;;10.70;99.90;;;;;;5049788;28;20494;-78
2022/01/03 09:37:50;;;;;;;11.43;3.20;;;10.80;99.90;;;;;;5050875;28;20465;-79
2022/01/03 09:40:17;;;;;;;12.30;3.20;;;11.00;99.90;;;;;;5049757;28;20451;-77
2022/01/03 09:42:50;;;;;;;12.57;2.60;;;11.10;99.90;;;;;;5051545;28;20870;-78
2022/01/03 09:45:17;;;;;;;9.87;2.70;;;11.00;99.90;;;;;;5055218;28;20533;-79
2022/01/03 09:47:47;;;;;;;14.47;3.03;;;11.00;99.90;;;;;;5055106;28;20486;-78
2022/01/03 09:50:17;;;;;;;14.37;3.10;;;11.10;99.90;;;;;;5050579;28;20479;-78
2022/01/03 09:52:48;;;;;;;14.57;3.40;;;11.20;99.90;;;;;;5050639;28;20543;-79
2022/01/03 09:55:17;;;;;;;15.17;2.97;;;11.30;99.90;;;;;;5050422;28;20465;-77
2022/01/03 09:57:46;;;;;;;13.30;3.07;;;11.40;99.90;;;;;;5051899;28;20477;-79
2022/01/03 10:00:15;;;;;;;18.43;3.40;;;11.60;99.90;;;;;;5050749;28;20542;-78
2022/01/03 10:02:44;;;;;;;13.77;3.60;;;11.90;99.90;;;;;;5051985;28;20466;-79
2022/01/03 10:05:11;;;;;;;16.63;2.83;;;12.10;99.90;;;;;;5052783;28;20444;-78
2022/01/03 10:07:40;;;;;;;9.53;3.00;;;11.80;99.90;;;;;;5050188;28;20475;-79
2022/01/03 10:10:08;;;;;;;8.17;2.30;;;11.70;99.90;;;;;;5048093;28;20471;-79
2022/01/03 10:12:36;;;;;;;10.67;3.27;;;11.60;99.90;;;;;;5052587;28;20463;-79
2022/01/03 10:15:05;;;;;;;10.60;2.73;;;11.60;99.90;;;;;;5050771;28;20468;-78
2022/01/03 10:17:35;;;;;;;9.70;2.10;;;11.50;99.90;;;;;;5051192;28;21003;-79
2022/01/03 10:20:02;;;;;;;5.97;3.27;;;11.60;99.90;;;;;;5051581;28;20996;-78
2022/01/03 10:22:30;;;;;;;9.77;2.57;;;11.70;99.90;;;;;;5050539;28;20460;-79
2022/01/03 10:24:58;;;;;;;10.40;2.90;;;11.90;99.90;;;;;;5051645;28;20447;-78
2022/01/03 10:27:43;;;;;;;9.47;2.83;;;12.30;99.90;;;;;;5050771;28;20490;-78
2022/01/03 10:30:12;;;;;;;9.70;3.73;;;12.40;99.90;;;;;;5053941;28;20481;-78
2022/01/03 10:32:39;;;;;;;12.33;2.53;;;12.20;99.90;;;;;;5035474;28;20459;-79
2022/01/03 10:35:14;;;;;;;15.87;3.63;;;12.20;99.90;;;;;;5049050;28;20456;-79
2022/01/03 10:37:42;;;;;;;9.57;2.50;;;12.20;99.90;;;;;;5056321;28;20985;-78
2022/01/03 10:40:27;;;;;;;15.60;3.17;;;12.20;99.90;;;;;;5053894;28;20477;-78
2022/01/03 10:42:55;;;;;;;8.30;2.20;;;12.00;99.90;;;;;;5054630;28;20440;-78
2022/01/03 10:45:33;;;;;;;8.73;2.90;;;12.00;99.90;;;;;;5043728;28;20546;-80
2022/01/03 10:48:01;;;;;;;12.80;3.40;;;12.10;99.90;;;;;;5042043;28;20540;-79
2022/01/03 10:50:29;;;;;;;12.87;2.93;;;12.00;99.90;;;;;;5054236;28;20539;-78
2022/01/03 10:52:56;;;;;;;10.40;2.13;;;12.10;99.90;;;;;;5054824;28;20477;-79
2022/01/03 10:55:26;;;;;;;9.50;2.67;;;12.40;99.90;;;;;;5053494;28;20458;-78
2022/01/03 10:57:55;;;;;;;9.53;2.50;;;12.60;99.90;;;;;;5054302;28;20514;-78
2022/01/03 11:00:26;;;;;;;9.63;2.40;;;12.80;99.90;;;;;;5047600;28;20466;-81
2022/01/03 11:03:28;;;;;;;9.93;2.33;;;13.10;99.90;;;;;;5048256;28;20444;-78
2022/01/03 11:06:00;;;;;;;10.40;2.77;;;13.00;99.90;;;;;;5049572;28;20799;-79
2022/01/03 11:11:15;;;;;;;11.43;2.80;;;12.90;99.90;;;;;;5052394;28;20470;-78
2022/01/03 11:13:43;;;;;;;10.97;3.40;;;12.80;99.90;;;;;;5056412;28;20460;-79
2022/01/03 11:16:12;;;;;;;9.33;2.50;;;12.70;99.90;;;;;;5054394;28;20484;-81
2022/01/03 11:18:44;;;;;;;14.37;3.07;;;12.50;99.90;;;;;;5055223;28;20477;-76
2022/01/03 11:21:13;;;;;;;8.80;2.60;;;12.50;99.90;;;;;;5051071;28;20460;-76
2022/01/03 11:23:42;;;;;;;8.70;2.80;;;12.90;99.90;;;;;;5046908;28;20503;-77
2022/01/03 11:26:11;;;;;;;8.90;2.90;;;13.20;99.90;;;;;;5050278;28;20806;-79
2022/01/03 11:28:39;;;;;;;9.90;2.23;;;13.10;99.90;;;;;;5046678;28;20478;-76
2022/01/03 11:31:11;;;;;;;12.13;2.70;;;12.80;99.90;;;;;;5045163;28;21018;-77
2022/01/03 11:33:40;;;;;;;17.40;2.90;;;12.70;99.90;;;;;;5049910;28;20445;-77
2022/01/03 11:36:07;;;;;;;12.27;3.00;;;12.50;99.90;;;;;;5049146;28;20454;-77
2022/01/03 11:38:37;;;;;;;8.83;2.47;;;12.40;99.90;;;;;;5050114;28;20475;-78
2022/01/03 11:41:06;;;;;;;19.90;2.90;;;12.40;99.90;;;;;;5048210;28;20440;-78
2022/01/03 11:43:34;;;;;;;15.03;2.87;;;12.40;99.90;;;;;;5049918;28;20450;-77
2022/01/03 11:46:02;;;;;;;13.63;3.50;;;12.30;99.90;;;;;;5049884;28;20469;-78
2022/01/03 11:48:29;;;;;;;15.60;3.20;;;12.40;99.90;;;;;;5047462;28;20479;-79
2022/01/03 11:51:02;;;;;;;14.67;2.67;;;12.40;99.90;;;;;;5049879;28;20493;-77
2022/01/03 11:53:30;;;;;;;9.70;3.10;;;12.40;99.90;;;;;;5050344;28;20459;-77
2022/01/03 11:55:58;;;;;;;14.23;2.90;;;12.20;99.90;;;;;;5050084;28;20816;-77
2022/01/03 11:58:53;;;;;;;10.27;3.10;;;12.20;99.90;;;;;;5047169;28;20555;-75
2022/01/03 12:04:12;;;;;;;20.50;3.53;;;12.20;99.90;;;;;;5052125;28;20426;-77
2022/01/03 12:06:42;;;;;;;10.70;3.30;;;12.10;99.90;;;;;;5050493;28;20919;-76
2022/01/03 12:09:13;;;;;;;9.67;2.67;;;12.20;99.90;;;;;;5053160;28;20553;-76
2022/01/03 12:11:46;;;;;;;10.70;2.47;;;12.00;99.90;;;;;;5050048;28;20483;-79
2022/01/03 12:14:16;;;;;;;11.20;2.97;;;12.00;99.90;;;;;;5046937;28;20450;-78
2022/01/03 12:16:46;;;;;;;10.30;3.37;;;12.10;99.90;;;;;;5049167;28;20826;-77
2022/01/03 12:19:15;;;;;;;9.37;2.57;;;12.20;99.90;;;;;;5049356;28;20471;-76
2022/01/03 12:21:54;;;;;;;10.13;3.30;;;12.30;99.90;;;;;;5048625;28;20462;-76
2022/01/03 12:24:44;;;;;;;11.10;3.37;;;12.40;99.90;;;;;;5049618;28;20483;-77
2022/01/03 12:27:39;;;;;;;8.90;2.13;;;12.30;99.90;;;;;;5049492;28;20471;-78
2022/01/03 12:30:17;;;;;;;13.47;3.13;;;12.20;99.90;;;;;;5050383;28;20551;-78
2022/01/03 12:32:48;;;;;;;11.67;2.90;;;12.10;99.90;;;;;;5047052;28;20443;-78
2022/01/03 12:35:23;;;;;;;7.73;2.30;;;12.10;99.90;;;;;;5049418;28;20462;-77
2022/01/03 12:38:23;;;;;;;10.13;2.27;;;12.10;99.90;;;;;;5045942;28;20470;-78
2022/01/03 12:40:53;;;;;;;6.10;2.03;;;12.00;99.90;;;;;;5050418;28;20457;-77
2022/01/03 12:43:34;;;;;;;7.63;2.23;;;12.00;99.90;;;;;;5050501;28;20444;-76
2022/01/03 12:46:00;;;;;;;11.10;2.30;;;12.00;99.90;;;;;;5050055;28;20447;-76
2022/01/03 12:48:33;;;;;;;10.60;2.90;;;11.90;99.90;;;;;;5050204;28;20883;-76
2022/01/03 12:51:21;;;;;;;8.17;3.00;;;11.80;99.90;;;;;;5047941;28;21022;-77
2022/01/03 12:53:54;;;;;;;10.17;2.27;;;11.80;99.90;;;;;;5046248;28;20465;-76
2022/01/03 12:56:31;;;;;;;9.00;2.67;;;11.70;99.90;;;;;;5044893;28;20446;-78
2022/01/03 12:59:09;;;;;;;15.97;2.73;;;11.70;99.90;;;;;;5047042;28;20501;-77
2022/01/03 13:01:35;;;;;;;13.03;3.13;;;11.70;99.90;;;;;;5049767;28;20854;-77
2022/01/03 13:04:20;;;;;;;11.40;2.63;;;11.50;99.90;;;;;;5051278;28;20455;-78
2022/01/03 13:06:47;;;;;;;8.60;2.80;;;11.40;99.90;;;;;;5047960;28;20450;-78